sensor_id;sensor_type;location;lat;lon;timestamp;P1;durP1;ratioP1;P2;durP2;ratioP2
61685;SDS011;47592;45.904;8.978;2022-11-20T00:01:35;2.90;;;0.90;;
61685;SDS011;47592;45.904;8.978;2022-11-20T00:04:01;3.72;;;1.20;;
61685;SDS011;47592;45.904;8.978;2022-11-20T00:06:27;7.53;;;3.78;;
61685;SDS011;47592;45.904;8.978;2022-11-20T00:08:56;6.95;;;3.10;;
61685;SDS011;47592;45.904;8.978;2022-11-20T00:11:24;7.35;;;3.30;;
61685;SDS011;47592;45.904;8.978;2022-11-20T00:13:51;4.55;;;1.60;;
61685;SDS011;47592;45.904;8.978;2022-11-20T00:16:20;6.10;;;2.75;;
61685;SDS011;47592;45.904;8.978;2022-11-20T00:18:47;5.57;;;2.88;;
61685;SDS011;47592;45.904;8.978;2022-11-20T00:21:16;7.85;;;3.92;;
61685;SDS011;47592;45.904;8.978;2022-11-20T00:23:46;7.03;;;3.35;;
61685;SDS011;47592;45.904;8.978;2022-11-20T00:26:15;4.85;;;1.77;;
61685;SDS011;47592;45.904;8.978;2022-11-20T00:28:42;4.20;;;1.25;;
61685;SDS011;47592;45.904;8.978;2022-11-20T00:31:13;5.80;;;2.58;;
61685;SDS011;47592;45.904;8.978;2022-11-20T00:33:40;7.45;;;3.78;;
61685;SDS011;47592;45.904;8.978;2022-11-20T00:36:08;9.82;;;4.15;;
61685;SDS011;47592;45.904;8.978;2022-11-20T00:38:38;9.85;;;4.38;;
61685;SDS011;47592;45.904;8.978;2022-11-20T00:41:04;8.27;;;4.05;;
61685;SDS011;47592;45.904;8.978;2022-11-20T00:43:31;7.85;;;3.67;;
61685;SDS011;47592;45.904;8.978;2022-11-20T00:45:57;5.75;;;2.67;;
61685;SDS011;47592;45.904;8.978;2022-11-20T00:48:30;4.65;;;1.60;;
61685;SDS011;47592;45.904;8.978;2022-11-20T00:50:56;4.13;;;1.30;;
61685;SDS011;47592;45.904;8.978;2022-11-20T00:53:22;4.18;;;1.63;;
61685;SDS011;47592;45.904;8.978;2022-11-20T00:55:58;5.57;;;2.80;;
61685;SDS011;47592;45.904;8.978;2022-11-20T00:58:28;9.85;;;3.30;;
61685;SDS011;47592;45.904;8.978;2022-11-20T01:00:59;10.10;;;3.67;;
61685;SDS011;47592;45.904;8.978;2022-11-20T01:03:26;7.90;;;3.80;;
61685;SDS011;47592;45.904;8.978;2022-11-20T01:05:51;7.85;;;3.83;;
61685;SDS011;47592;45.904;8.978;2022-11-20T01:08:16;8.32;;;3.85;;
61685;SDS011;47592;45.904;8.978;2022-11-20T01:10:42;10.35;;;3.63;;
61685;SDS011;47592;45.904;8.978;2022-11-20T01:13:07;7.05;;;3.63;;
61685;SDS011;47592;45.904;8.978;2022-11-20T01:15:51;6.95;;;3.70;;
61685;SDS011;47592;45.904;8.978;2022-11-20T01:18:17;8.80;;;3.50;;
61685;SDS011;47592;45.904;8.978;2022-11-20T01:20:42;7.65;;;3.58;;
61685;SDS011;47592;45.904;8.978;2022-11-20T01:23:07;8.52;;;3.85;;
61685;SDS011;47592;45.904;8.978;2022-11-20T01:25:33;8.20;;;4.05;;
61685;SDS011;47592;45.904;8.978;2022-11-20T01:27:59;7.07;;;3.47;;
61685;SDS011;47592;45.904;8.978;2022-11-20T01:30:24;6.65;;;3.42;;
61685;SDS011;47592;45.904;8.978;2022-11-20T01:32:50;6.93;;;3.75;;
61685;SDS011;47592;45.904;8.978;2022-11-20T01:35:16;7.25;;;3.55;;
61685;SDS011;47592;45.904;8.978;2022-11-20T01:37:41;7.10;;;3.80;;
61685;SDS011;47592;45.904;8.978;2022-11-20T01:40:07;8.80;;;4.25;;
61685;SDS011;47592;45.904;8.978;2022-11-20T01:42:32;7.72;;;4.00;;
61685;SDS011;47592;45.904;8.978;2022-11-20T01:48:21;6.80;;;4.05;;
61685;SDS011;47592;45.904;8.978;2022-11-20T01:50:48;7.38;;;3.40;;
61685;SDS011;47592;45.904;8.978;2022-11-20T01:53:14;7.38;;;3.38;;
61685;SDS011;47592;45.904;8.978;2022-11-20T01:55:44;8.43;;;3.55;;
61685;SDS011;47592;45.904;8.978;2022-11-20T01:58:12;7.15;;;3.25;;
61685;SDS011;47592;45.904;8.978;2022-11-20T02:00:37;6.13;;;3.25;;
61685;SDS011;47592;45.904;8.978;2022-11-20T02:03:07;6.88;;;3.15;;
61685;SDS011;47592;45.904;8.978;2022-11-20T02:08:08;5.63;;;3.08;;
61685;SDS011;47592;45.904;8.978;2022-11-20T02:10:33;7.30;;;3.53;;
61685;SDS011;47592;45.904;8.978;2022-11-20T02:12:59;6.15;;;2.97;;
61685;SDS011;47592;45.904;8.978;2022-11-20T02:15:43;7.25;;;3.63;;
61685;SDS011;47592;45.904;8.978;2022-11-20T02:18:10;6.85;;;3.50;;
61685;SDS011;47592;45.904;8.978;2022-11-20T02:20:36;7.05;;;3.50;;
61685;SDS011;47592;45.904;8.978;2022-11-20T02:29:53;6.57;;;3.15;;
61685;SDS011;47592;45.904;8.978;2022-11-20T02:32:30;7.28;;;3.25;;
61685;SDS011;47592;45.904;8.978;2022-11-20T02:34:57;5.60;;;2.97;;
61685;SDS011;47592;45.904;8.978;2022-11-20T02:37:23;7.35;;;3.40;;
61685;SDS011;47592;45.904;8.978;2022-11-20T02:39:54;7.18;;;3.08;;
61685;SDS011;47592;45.904;8.978;2022-11-20T02:42:19;5.80;;;2.80;;
61685;SDS011;47592;45.904;8.978;2022-11-20T02:44:45;6.45;;;3.20;;
61685;SDS011;47592;45.904;8.978;2022-11-20T02:47:10;6.85;;;2.92;;
61685;SDS011;47592;45.904;8.978;2022-11-20T02:49:36;6.07;;;2.85;;
61685;SDS011;47592;45.904;8.978;2022-11-20T02:52:01;6.10;;;3.15;;
61685;SDS011;47592;45.904;8.978;2022-11-20T02:54:27;6.90;;;3.28;;
61685;SDS011;47592;45.904;8.978;2022-11-20T02:56:52;7.80;;;3.55;;
61685;SDS011;47592;45.904;8.978;2022-11-20T02:59:18;6.88;;;3.45;;
61685;SDS011;47592;45.904;8.978;2022-11-20T03:01:43;6.10;;;2.63;;
61685;SDS011;47592;45.904;8.978;2022-11-20T03:04:09;6.13;;;2.85;;
61685;SDS011;47592;45.904;8.978;2022-11-20T03:06:34;6.35;;;3.40;;
61685;SDS011;47592;45.904;8.978;2022-11-20T03:09:00;6.13;;;2.55;;
61685;SDS011;47592;45.904;8.978;2022-11-20T03:11:25;8.85;;;3.00;;
61685;SDS011;47592;45.904;8.978;2022-11-20T03:13:50;5.80;;;2.65;;
61685;SDS011;47592;45.904;8.978;2022-11-20T03:16:17;6.22;;;2.90;;
61685;SDS011;47592;45.904;8.978;2022-11-20T03:18:44;6.60;;;2.38;;
61685;SDS011;47592;45.904;8.978;2022-11-20T03:21:10;6.15;;;2.42;;
61685;SDS011;47592;45.904;8.978;2022-11-20T03:23:37;5.10;;;2.17;;
61685;SDS011;47592;45.904;8.978;2022-11-20T03:26:23;6.15;;;2.55;;
61685;SDS011;47592;45.904;8.978;2022-11-20T03:28:53;5.25;;;2.45;;
61685;SDS011;47592;45.904;8.978;2022-11-20T03:31:20;6.28;;;2.45;;
61685;SDS011;47592;45.904;8.978;2022-11-20T03:33:50;5.13;;;2.25;;
61685;SDS011;47592;45.904;8.978;2022-11-20T03:36:16;7.45;;;2.40;;
61685;SDS011;47592;45.904;8.978;2022-11-20T03:38:42;5.60;;;2.25;;
61685;SDS011;47592;45.904;8.978;2022-11-20T03:41:09;5.40;;;2.35;;
61685;SDS011;47592;45.904;8.978;2022-11-20T03:43:36;6.60;;;2.38;;
61685;SDS011;47592;45.904;8.978;2022-11-20T03:46:02;4.80;;;2.17;;
61685;SDS011;47592;45.904;8.978;2022-11-20T03:48:28;5.38;;;2.42;;
61685;SDS011;47592;45.904;8.978;2022-11-20T03:50:53;5.18;;;2.40;;
61685;SDS011;47592;45.904;8.978;2022-11-20T03:53:31;4.88;;;1.85;;
61685;SDS011;47592;45.904;8.978;2022-11-20T03:55:57;4.82;;;2.00;;
61685;SDS011;47592;45.904;8.978;2022-11-20T03:58:22;5.03;;;1.88;;
61685;SDS011;47592;45.904;8.978;2022-11-20T04:00:47;5.97;;;2.00;;
61685;SDS011;47592;45.904;8.978;2022-11-20T04:03:13;4.97;;;1.98;;
61685;SDS011;47592;45.904;8.978;2022-11-20T04:05:38;5.40;;;2.00;;
61685;SDS011;47592;45.904;8.978;2022-11-20T04:08:04;4.63;;;1.92;;
61685;SDS011;47592;45.904;8.978;2022-11-20T04:10:29;5.47;;;2.08;;
61685;SDS011;47592;45.904;8.978;2022-11-20T04:12:55;5.60;;;2.38;;
61685;SDS011;47592;45.904;8.978;2022-11-20T04:15:20;4.97;;;2.03;;
61685;SDS011;47592;45.904;8.978;2022-11-20T04:17:45;5.57;;;1.90;;
61685;SDS011;47592;45.904;8.978;2022-11-20T04:20:11;7.30;;;2.15;;
61685;SDS011;47592;45.904;8.978;2022-11-20T04:22:36;4.78;;;1.80;;
61685;SDS011;47592;45.904;8.978;2022-11-20T04:25:02;4.45;;;1.70;;
61685;SDS011;47592;45.904;8.978;2022-11-20T04:27:28;5.95;;;1.98;;
61685;SDS011;47592;45.904;8.978;2022-11-20T04:29:53;5.72;;;1.95;;
61685;SDS011;47592;45.904;8.978;2022-11-20T04:32:19;5.00;;;1.90;;
61685;SDS011;47592;45.904;8.978;2022-11-20T04:34:44;5.30;;;2.00;;
61685;SDS011;47592;45.904;8.978;2022-11-20T04:37:09;5.43;;;2.10;;
61685;SDS011;47592;45.904;8.978;2022-11-20T04:39:35;6.05;;;2.10;;
61685;SDS011;47592;45.904;8.978;2022-11-20T04:42:00;5.38;;;2.40;;
61685;SDS011;47592;45.904;8.978;2022-11-20T04:44:49;4.82;;;2.20;;
61685;SDS011;47592;45.904;8.978;2022-11-20T04:47:14;6.32;;;2.30;;
61685;SDS011;47592;45.904;8.978;2022-11-20T04:49:39;5.07;;;2.17;;
61685;SDS011;47592;45.904;8.978;2022-11-20T04:52:05;6.45;;;2.20;;
61685;SDS011;47592;45.904;8.978;2022-11-20T04:54:30;5.35;;;2.35;;
61685;SDS011;47592;45.904;8.978;2022-11-20T04:56:55;5.22;;;2.20;;
61685;SDS011;47592;45.904;8.978;2022-11-20T04:59:21;4.72;;;2.08;;
61685;SDS011;47592;45.904;8.978;2022-11-20T05:01:47;5.95;;;2.20;;
61685;SDS011;47592;45.904;8.978;2022-11-20T05:04:12;5.57;;;2.13;;
61685;SDS011;47592;45.904;8.978;2022-11-20T05:06:38;5.10;;;1.92;;
61685;SDS011;47592;45.904;8.978;2022-11-20T05:09:03;4.80;;;2.25;;
61685;SDS011;47592;45.904;8.978;2022-11-20T05:11:29;5.88;;;2.70;;
61685;SDS011;47592;45.904;8.978;2022-11-20T05:13:54;8.00;;;2.28;;
61685;SDS011;47592;45.904;8.978;2022-11-20T05:16:21;8.43;;;2.03;;
61685;SDS011;47592;45.904;8.978;2022-11-20T05:18:47;4.68;;;2.00;;
61685;SDS011;47592;45.904;8.978;2022-11-20T05:21:13;5.15;;;2.08;;
61685;SDS011;47592;45.904;8.978;2022-11-20T05:23:39;5.53;;;1.88;;
61685;SDS011;47592;45.904;8.978;2022-11-20T05:26:05;5.57;;;1.80;;
61685;SDS011;47592;45.904;8.978;2022-11-20T05:28:32;4.80;;;2.05;;
61685;SDS011;47592;45.904;8.978;2022-11-20T05:31:08;4.50;;;1.88;;
61685;SDS011;47592;45.904;8.978;2022-11-20T05:33:39;4.95;;;2.00;;
61685;SDS011;47592;45.904;8.978;2022-11-20T05:36:05;7.32;;;2.22;;
61685;SDS011;47592;45.904;8.978;2022-11-20T05:38:31;6.65;;;2.25;;
61685;SDS011;47592;45.904;8.978;2022-11-20T05:41:04;4.47;;;1.92;;
61685;SDS011;47592;45.904;8.978;2022-11-20T05:43:31;5.28;;;2.03;;
61685;SDS011;47592;45.904;8.978;2022-11-20T05:45:58;4.30;;;1.77;;
61685;SDS011;47592;45.904;8.978;2022-11-20T05:48:23;4.82;;;1.80;;
61685;SDS011;47592;45.904;8.978;2022-11-20T05:50:49;4.68;;;2.13;;
61685;SDS011;47592;45.904;8.978;2022-11-20T05:53:14;5.50;;;2.10;;
61685;SDS011;47592;45.904;8.978;2022-11-20T05:55:39;6.60;;;2.30;;
61685;SDS011;47592;45.904;8.978;2022-11-20T05:58:05;5.25;;;2.20;;
61685;SDS011;47592;45.904;8.978;2022-11-20T06:00:30;4.40;;;1.90;;
61685;SDS011;47592;45.904;8.978;2022-11-20T06:02:56;4.00;;;1.70;;
61685;SDS011;47592;45.904;8.978;2022-11-20T06:05:21;5.28;;;2.20;;
61685;SDS011;47592;45.904;8.978;2022-11-20T06:07:47;6.38;;;1.90;;
61685;SDS011;47592;45.904;8.978;2022-11-20T06:10:12;6.30;;;2.13;;
61685;SDS011;47592;45.904;8.978;2022-11-20T06:12:38;5.45;;;2.13;;
61685;SDS011;47592;45.904;8.978;2022-11-20T06:15:04;4.43;;;1.98;;
61685;SDS011;47592;45.904;8.978;2022-11-20T06:17:30;5.70;;;2.00;;
61685;SDS011;47592;45.904;8.978;2022-11-20T06:19:55;5.22;;;2.00;;
61685;SDS011;47592;45.904;8.978;2022-11-20T06:22:21;4.60;;;1.80;;
61685;SDS011;47592;45.904;8.978;2022-11-20T06:24:47;4.88;;;1.73;;
61685;SDS011;47592;45.904;8.978;2022-11-20T06:27:12;8.35;;;2.20;;
61685;SDS011;47592;45.904;8.978;2022-11-20T06:29:37;6.00;;;2.25;;
61685;SDS011;47592;45.904;8.978;2022-11-20T06:32:03;5.20;;;1.60;;
61685;SDS011;47592;45.904;8.978;2022-11-20T06:34:28;3.28;;;1.15;;
61685;SDS011;47592;45.904;8.978;2022-11-20T06:36:54;2.05;;;0.60;;
61685;SDS011;47592;45.904;8.978;2022-11-20T06:39:19;3.30;;;1.10;;
61685;SDS011;47592;45.904;8.978;2022-11-20T06:41:45;2.25;;;0.70;;
61685;SDS011;47592;45.904;8.978;2022-11-20T06:44:10;2.95;;;1.00;;
61685;SDS011;47592;45.904;8.978;2022-11-20T06:46:36;2.67;;;0.77;;
61685;SDS011;47592;45.904;8.978;2022-11-20T06:49:02;2.45;;;0.70;;
61685;SDS011;47592;45.904;8.978;2022-11-20T06:51:28;1.33;;;0.50;;
61685;SDS011;47592;45.904;8.978;2022-11-20T06:53:53;2.17;;;0.73;;
61685;SDS011;47592;45.904;8.978;2022-11-20T06:56:19;1.80;;;0.60;;
61685;SDS011;47592;45.904;8.978;2022-11-20T06:58:45;1.67;;;0.60;;
61685;SDS011;47592;45.904;8.978;2022-11-20T07:01:11;1.45;;;0.60;;
61685;SDS011;47592;45.904;8.978;2022-11-20T07:03:38;2.20;;;0.50;;
61685;SDS011;47592;45.904;8.978;2022-11-20T07:06:04;1.40;;;0.50;;
61685;SDS011;47592;45.904;8.978;2022-11-20T07:08:30;2.20;;;0.50;;
61685;SDS011;47592;45.904;8.978;2022-11-20T07:10:59;1.83;;;0.60;;
61685;SDS011;47592;45.904;8.978;2022-11-20T07:13:26;1.20;;;0.52;;
61685;SDS011;47592;45.904;8.978;2022-11-20T07:15:52;1.95;;;0.73;;
61685;SDS011;47592;45.904;8.978;2022-11-20T07:18:17;1.83;;;0.70;;
61685;SDS011;47592;45.904;8.978;2022-11-20T07:20:43;1.52;;;0.60;;
61685;SDS011;47592;45.904;8.978;2022-11-20T07:23:08;2.33;;;0.70;;
61685;SDS011;47592;45.904;8.978;2022-11-20T07:25:33;1.55;;;0.60;;
61685;SDS011;47592;45.904;8.978;2022-11-20T07:27:59;2.22;;;0.68;;
61685;SDS011;47592;45.904;8.978;2022-11-20T07:30:25;1.25;;;0.57;;
61685;SDS011;47592;45.904;8.978;2022-11-20T07:32:51;2.22;;;0.70;;
61685;SDS011;47592;45.904;8.978;2022-11-20T07:35:17;1.55;;;0.50;;
61685;SDS011;47592;45.904;8.978;2022-11-20T07:37:43;1.88;;;0.50;;
61685;SDS011;47592;45.904;8.978;2022-11-20T07:40:11;1.35;;;0.50;;
61685;SDS011;47592;45.904;8.978;2022-11-20T07:42:37;1.58;;;0.60;;
61685;SDS011;47592;45.904;8.978;2022-11-20T07:45:02;1.83;;;0.50;;
61685;SDS011;47592;45.904;8.978;2022-11-20T07:47:28;1.17;;;0.47;;
61685;SDS011;47592;45.904;8.978;2022-11-20T07:49:53;2.08;;;0.73;;
61685;SDS011;47592;45.904;8.978;2022-11-20T07:52:19;2.67;;;0.85;;
61685;SDS011;47592;45.904;8.978;2022-11-20T07:54:44;3.78;;;0.80;;
61685;SDS011;47592;45.904;8.978;2022-11-20T07:57:09;3.20;;;0.88;;
61685;SDS011;47592;45.904;8.978;2022-11-20T07:59:35;1.48;;;0.60;;
61685;SDS011;47592;45.904;8.978;2022-11-20T08:02:00;2.80;;;0.77;;
61685;SDS011;47592;45.904;8.978;2022-11-20T08:04:26;1.67;;;0.60;;
61685;SDS011;47592;45.904;8.978;2022-11-20T08:06:52;2.30;;;0.70;;
61685;SDS011;47592;45.904;8.978;2022-11-20T08:09:17;1.73;;;0.63;;
61685;SDS011;47592;45.904;8.978;2022-11-20T08:11:42;3.50;;;1.02;;
61685;SDS011;47592;45.904;8.978;2022-11-20T08:14:26;3.08;;;1.10;;
61685;SDS011;47592;45.904;8.978;2022-11-20T08:16:52;3.83;;;1.02;;
61685;SDS011;47592;45.904;8.978;2022-11-20T08:19:18;3.30;;;1.10;;
61685;SDS011;47592;45.904;8.978;2022-11-20T08:21:44;3.08;;;1.10;;
61685;SDS011;47592;45.904;8.978;2022-11-20T08:24:10;3.20;;;0.90;;
61685;SDS011;47592;45.904;8.978;2022-11-20T08:26:36;2.95;;;0.85;;
61685;SDS011;47592;45.904;8.978;2022-11-20T08:29:02;3.05;;;1.00;;
61685;SDS011;47592;45.904;8.978;2022-11-20T08:31:28;4.40;;;1.30;;
61685;SDS011;47592;45.904;8.978;2022-11-20T08:33:54;3.97;;;1.00;;
61685;SDS011;47592;45.904;8.978;2022-11-20T08:36:20;3.08;;;1.00;;
61685;SDS011;47592;45.904;8.978;2022-11-20T08:38:50;3.35;;;1.00;;
61685;SDS011;47592;45.904;8.978;2022-11-20T08:41:16;4.28;;;0.93;;
61685;SDS011;47592;45.904;8.978;2022-11-20T08:43:56;3.10;;;0.80;;
61685;SDS011;47592;45.904;8.978;2022-11-20T08:46:26;3.65;;;1.10;;
61685;SDS011;47592;45.904;8.978;2022-11-20T08:48:53;4.28;;;1.20;;
61685;SDS011;47592;45.904;8.978;2022-11-20T08:51:19;3.83;;;1.40;;
61685;SDS011;47592;45.904;8.978;2022-11-20T08:53:45;2.42;;;0.70;;
61685;SDS011;47592;45.904;8.978;2022-11-20T08:56:11;2.53;;;0.55;;
61685;SDS011;47592;45.904;8.978;2022-11-20T08:58:37;3.00;;;0.90;;
61685;SDS011;47592;45.904;8.978;2022-11-20T09:01:03;3.22;;;1.20;;
61685;SDS011;47592;45.904;8.978;2022-11-20T09:03:28;8.80;;;3.13;;
61685;SDS011;47592;45.904;8.978;2022-11-20T09:06:01;17.52;;;6.90;;
61685;SDS011;47592;45.904;8.978;2022-11-20T09:08:28;14.13;;;6.22;;
61685;SDS011;47592;45.904;8.978;2022-11-20T09:10:55;11.40;;;4.38;;
61685;SDS011;47592;45.904;8.978;2022-11-20T09:13:21;3.78;;;1.20;;
61685;SDS011;47592;45.904;8.978;2022-11-20T09:15:47;5.45;;;1.77;;
61685;SDS011;47592;45.904;8.978;2022-11-20T09:20:42;3.50;;;1.02;;
61685;SDS011;47592;45.904;8.978;2022-11-20T09:23:07;3.00;;;0.90;;
61685;SDS011;47592;45.904;8.978;2022-11-20T09:25:33;3.80;;;1.40;;
61685;SDS011;47592;45.904;8.978;2022-11-20T09:27:58;3.72;;;1.20;;
61685;SDS011;47592;45.904;8.978;2022-11-20T09:30:24;3.53;;;1.20;;
61685;SDS011;47592;45.904;8.978;2022-11-20T09:32:51;4.90;;;1.27;;
61685;SDS011;47592;45.904;8.978;2022-11-20T09:35:17;3.70;;;1.10;;
61685;SDS011;47592;45.904;8.978;2022-11-20T09:37:43;9.50;;;1.27;;
61685;SDS011;47592;45.904;8.978;2022-11-20T09:40:19;3.28;;;0.70;;
61685;SDS011;47592;45.904;8.978;2022-11-20T09:48:04;2.15;;;0.68;;
61685;SDS011;47592;45.904;8.978;2022-11-20T09:50:49;3.90;;;0.90;;
61685;SDS011;47592;45.904;8.978;2022-11-20T09:53:41;2.65;;;0.77;;
61685;SDS011;47592;45.904;8.978;2022-11-20T09:56:15;2.40;;;0.60;;
61685;SDS011;47592;45.904;8.978;2022-11-20T09:58:45;1.25;;;0.43;;
61685;SDS011;47592;45.904;8.978;2022-11-20T10:01:15;3.67;;;1.10;;
61685;SDS011;47592;45.904;8.978;2022-11-20T10:03:45;3.40;;;1.20;;
61685;SDS011;47592;45.904;8.978;2022-11-20T10:06:18;6.22;;;1.40;;
61685;SDS011;47592;45.904;8.978;2022-11-20T10:08:48;3.05;;;0.90;;
61685;SDS011;47592;45.904;8.978;2022-11-20T10:25:26;2.35;;;0.77;;
61685;SDS011;47592;45.904;8.978;2022-11-20T10:28:09;3.85;;;0.85;;
61685;SDS011;47592;45.904;8.978;2022-11-20T10:30:55;1.98;;;0.52;;
61685;SDS011;47592;45.904;8.978;2022-11-20T10:33:25;1.50;;;0.50;;
61685;SDS011;47592;45.904;8.978;2022-11-20T10:35:58;2.00;;;0.35;;
61685;SDS011;47592;45.904;8.978;2022-11-20T10:38:39;1.77;;;0.63;;
61685;SDS011;47592;45.904;8.978;2022-11-20T10:41:34;1.58;;;0.50;;
61685;SDS011;47592;45.904;8.978;2022-11-20T10:44:26;1.27;;;0.45;;
61685;SDS011;47592;45.904;8.978;2022-11-20T10:47:16;2.05;;;0.30;;
61685;SDS011;47592;45.904;8.978;2022-11-20T10:49:43;0.95;;;0.40;;
61685;SDS011;47592;45.904;8.978;2022-11-20T11:02:42;1.30;;;0.40;;
61685;SDS011;47592;45.904;8.978;2022-11-20T11:05:16;1.40;;;0.40;;
61685;SDS011;47592;45.904;8.978;2022-11-20T11:07:51;1.92;;;0.50;;
61685;SDS011;47592;45.904;8.978;2022-11-20T11:10:24;1.75;;;0.50;;
61685;SDS011;47592;45.904;8.978;2022-11-20T11:12:54;2.92;;;0.80;;
61685;SDS011;47592;45.904;8.978;2022-11-20T11:15:29;2.55;;;0.52;;
61685;SDS011;47592;45.904;8.978;2022-11-20T11:18:01;2.17;;;0.60;;
61685;SDS011;47592;45.904;8.978;2022-11-20T11:20:27;2.67;;;0.75;;
61685;SDS011;47592;45.904;8.978;2022-11-20T11:22:53;3.17;;;0.60;;
61685;SDS011;47592;45.904;8.978;2022-11-20T11:25:22;2.28;;;0.68;;
61685;SDS011;47592;45.904;8.978;2022-11-20T11:27:50;2.00;;;0.60;;
61685;SDS011;47592;45.904;8.978;2022-11-20T11:30:16;1.02;;;0.40;;
61685;SDS011;47592;45.904;8.978;2022-11-20T11:32:44;1.65;;;0.43;;
61685;SDS011;47592;45.904;8.978;2022-11-20T11:35:23;1.48;;;0.50;;
61685;SDS011;47592;45.904;8.978;2022-11-20T11:37:53;1.88;;;0.50;;
61685;SDS011;47592;45.904;8.978;2022-11-20T11:40:26;1.00;;;0.40;;
61685;SDS011;47592;45.904;8.978;2022-11-20T11:42:58;1.20;;;0.50;;
61685;SDS011;47592;45.904;8.978;2022-11-20T11:45:26;1.65;;;0.43;;
61685;SDS011;47592;45.904;8.978;2022-11-20T11:47:52;2.42;;;0.80;;
61685;SDS011;47592;45.904;8.978;2022-11-20T11:50:23;2.17;;;0.80;;
61685;SDS011;47592;45.904;8.978;2022-11-20T12:01:20;1.30;;;0.50;;
61685;SDS011;47592;45.904;8.978;2022-11-20T12:04:14;1.50;;;0.50;;
61685;SDS011;47592;45.904;8.978;2022-11-20T12:07:01;1.20;;;0.28;;
61685;SDS011;47592;45.904;8.978;2022-11-20T12:09:34;1.92;;;0.50;;
61685;SDS011;47592;45.904;8.978;2022-11-20T12:12:05;1.92;;;0.60;;
61685;SDS011;47592;45.904;8.978;2022-11-20T12:17:03;1.63;;;0.60;;
61685;SDS011;47592;45.904;8.978;2022-11-20T12:19:30;1.45;;;0.40;;
61685;SDS011;47592;45.904;8.978;2022-11-20T12:22:34;1.02;;;0.40;;
61685;SDS011;47592;45.904;8.978;2022-11-20T12:25:42;1.23;;;0.40;;
61685;SDS011;47592;45.904;8.978;2022-11-20T12:30:52;1.00;;;0.20;;
61685;SDS011;47592;45.904;8.978;2022-11-20T12:39:33;1.27;;;0.40;;
61685;SDS011;47592;45.904;8.978;2022-11-20T12:45:25;0.75;;;0.25;;
61685;SDS011;47592;45.904;8.978;2022-11-20T12:56:19;0.88;;;0.30;;
61685;SDS011;47592;45.904;8.978;2022-11-20T13:01:41;1.92;;;0.43;;
61685;SDS011;47592;45.904;8.978;2022-11-20T13:06:38;0.63;;;0.20;;
61685;SDS011;47592;45.904;8.978;2022-11-20T13:09:06;1.13;;;0.32;;
61685;SDS011;47592;45.904;8.978;2022-11-20T13:11:37;2.30;;;0.52;;
61685;SDS011;47592;45.904;8.978;2022-11-20T13:14:27;2.67;;;0.90;;
61685;SDS011;47592;45.904;8.978;2022-11-20T13:16:58;1.42;;;0.50;;
61685;SDS011;47592;45.904;8.978;2022-11-20T13:19:29;1.42;;;0.60;;
61685;SDS011;47592;45.904;8.978;2022-11-20T13:21:55;2.20;;;0.68;;
61685;SDS011;47592;45.904;8.978;2022-11-20T13:29:37;0.85;;;0.30;;
61685;SDS011;47592;45.904;8.978;2022-11-20T13:32:06;1.17;;;0.40;;
61685;SDS011;47592;45.904;8.978;2022-11-20T13:42:45;1.73;;;0.45;;
61685;SDS011;47592;45.904;8.978;2022-11-20T13:45:21;1.20;;;0.40;;
61685;SDS011;47592;45.904;8.978;2022-11-20T13:47:51;2.20;;;0.80;;
61685;SDS011;47592;45.904;8.978;2022-11-20T13:50:17;1.80;;;0.38;;
61685;SDS011;47592;45.904;8.978;2022-11-20T13:53:05;1.15;;;0.40;;
61685;SDS011;47592;45.904;8.978;2022-11-20T14:01:29;2.85;;;0.93;;
61685;SDS011;47592;45.904;8.978;2022-11-20T14:03:59;3.55;;;0.90;;
61685;SDS011;47592;45.904;8.978;2022-11-20T14:06:31;2.70;;;0.88;;
61685;SDS011;47592;45.904;8.978;2022-11-20T14:08:59;3.95;;;1.55;;
61685;SDS011;47592;45.904;8.978;2022-11-20T14:11:28;4.65;;;1.52;;
61685;SDS011;47592;45.904;8.978;2022-11-20T14:14:10;4.35;;;1.70;;
61685;SDS011;47592;45.904;8.978;2022-11-20T14:16:39;4.22;;;1.60;;
61685;SDS011;47592;45.904;8.978;2022-11-20T14:21:49;4.65;;;1.88;;
61685;SDS011;47592;45.904;8.978;2022-11-20T14:24:19;4.47;;;1.67;;
61685;SDS011;47592;45.904;8.978;2022-11-20T14:26:46;3.72;;;1.70;;
61685;SDS011;47592;45.904;8.978;2022-11-20T14:29:13;7.13;;;2.20;;
61685;SDS011;47592;45.904;8.978;2022-11-20T14:31:39;5.72;;;2.25;;
61685;SDS011;47592;45.904;8.978;2022-11-20T14:34:05;4.45;;;1.80;;
61685;SDS011;47592;45.904;8.978;2022-11-20T14:36:46;4.70;;;1.80;;
61685;SDS011;47592;45.904;8.978;2022-11-20T14:39:19;4.80;;;1.95;;
61685;SDS011;47592;45.904;8.978;2022-11-20T14:41:52;5.10;;;2.08;;
61685;SDS011;47592;45.904;8.978;2022-11-20T14:44:19;5.50;;;2.53;;
61685;SDS011;47592;45.904;8.978;2022-11-20T14:46:45;4.60;;;2.20;;
61685;SDS011;47592;45.904;8.978;2022-11-20T14:49:10;5.60;;;2.70;;
61685;SDS011;47592;45.904;8.978;2022-11-20T14:51:37;4.38;;;2.10;;
61685;SDS011;47592;45.904;8.978;2022-11-20T14:56:38;7.57;;;2.20;;
61685;SDS011;47592;45.904;8.978;2022-11-20T14:59:03;5.82;;;2.38;;
61685;SDS011;47592;45.904;8.978;2022-11-20T15:01:30;5.72;;;2.70;;
61685;SDS011;47592;45.904;8.978;2022-11-20T15:04:15;5.93;;;2.33;;
61685;SDS011;47592;45.904;8.978;2022-11-20T15:06:49;5.07;;;2.33;;
61685;SDS011;47592;45.904;8.978;2022-11-20T15:09:18;5.30;;;2.47;;
61685;SDS011;47592;45.904;8.978;2022-11-20T15:12:02;5.78;;;2.60;;
61685;SDS011;47592;45.904;8.978;2022-11-20T15:14:28;5.88;;;2.83;;
61685;SDS011;47592;45.904;8.978;2022-11-20T15:16:55;6.60;;;3.00;;
61685;SDS011;47592;45.904;8.978;2022-11-20T15:19:21;5.38;;;2.67;;
61685;SDS011;47592;45.904;8.978;2022-11-20T15:21:48;5.57;;;2.83;;
61685;SDS011;47592;45.904;8.978;2022-11-20T15:24:14;5.93;;;3.20;;
61685;SDS011;47592;45.904;8.978;2022-11-20T15:26:39;6.80;;;3.60;;
61685;SDS011;47592;45.904;8.978;2022-11-20T15:29:07;6.13;;;3.20;;
61685;SDS011;47592;45.904;8.978;2022-11-20T15:31:33;6.40;;;3.42;;
61685;SDS011;47592;45.904;8.978;2022-11-20T15:33:59;6.65;;;3.65;;
61685;SDS011;47592;45.904;8.978;2022-11-20T15:36:25;5.75;;;3.35;;
61685;SDS011;47592;45.904;8.978;2022-11-20T15:38:50;7.82;;;3.90;;
61685;SDS011;47592;45.904;8.978;2022-11-20T15:41:16;6.72;;;3.50;;
61685;SDS011;47592;45.904;8.978;2022-11-20T15:43:41;7.30;;;3.70;;
61685;SDS011;47592;45.904;8.978;2022-11-20T15:46:11;6.88;;;3.40;;
61685;SDS011;47592;45.904;8.978;2022-11-20T15:48:39;6.95;;;3.88;;
61685;SDS011;47592;45.904;8.978;2022-11-20T15:53:35;8.13;;;4.28;;
61685;SDS011;47592;45.904;8.978;2022-11-20T15:56:05;7.53;;;3.78;;
61685;SDS011;47592;45.904;8.978;2022-11-20T15:58:31;6.90;;;4.18;;
61685;SDS011;47592;45.904;8.978;2022-11-20T16:00:56;8.13;;;4.20;;
61685;SDS011;47592;45.904;8.978;2022-11-20T16:03:22;7.85;;;4.10;;
61685;SDS011;47592;45.904;8.978;2022-11-20T16:05:47;9.38;;;4.07;;
61685;SDS011;47592;45.904;8.978;2022-11-20T16:08:13;8.30;;;4.10;;
61685;SDS011;47592;45.904;8.978;2022-11-20T16:10:39;7.95;;;3.95;;
61685;SDS011;47592;45.904;8.978;2022-11-20T16:13:05;5.82;;;3.33;;
61685;SDS011;47592;45.904;8.978;2022-11-20T16:15:56;6.75;;;3.42;;
61685;SDS011;47592;45.904;8.978;2022-11-20T16:18:23;7.93;;;3.60;;
61685;SDS011;47592;45.904;8.978;2022-11-20T16:20:50;7.10;;;3.70;;
61685;SDS011;47592;45.904;8.978;2022-11-20T16:23:16;9.02;;;4.07;;
61685;SDS011;47592;45.904;8.978;2022-11-20T16:25:43;7.75;;;4.15;;
61685;SDS011;47592;45.904;8.978;2022-11-20T16:28:09;7.63;;;4.68;;
61685;SDS011;47592;45.904;8.978;2022-11-20T16:30:34;9.13;;;4.50;;
61685;SDS011;47592;45.904;8.978;2022-11-20T16:33:00;9.30;;;4.72;;
61685;SDS011;47592;45.904;8.978;2022-11-20T16:35:28;6.95;;;4.25;;
61685;SDS011;47592;45.904;8.978;2022-11-20T16:37:55;9.25;;;4.85;;
61685;SDS011;47592;45.904;8.978;2022-11-20T16:40:23;7.70;;;4.28;;
61685;SDS011;47592;45.904;8.978;2022-11-20T16:42:48;7.95;;;4.53;;
61685;SDS011;47592;45.904;8.978;2022-11-20T16:45:14;8.10;;;4.60;;